createdAt,value
2018-06-25T00:01:37.965Z,17.70
2018-06-25T00:04:06.154Z,17.70
2018-06-25T00:06:34.355Z,17.70
2018-06-25T00:09:02.614Z,17.60
2018-06-25T00:13:58.986Z,17.60
2018-06-25T00:16:27.225Z,17.50
2018-06-25T00:18:55.473Z,17.50
2018-06-25T00:21:23.717Z,17.50
2018-06-25T00:23:51.967Z,17.50
2018-06-25T00:26:20.159Z,17.50
2018-06-25T00:28:48.343Z,17.50
2018-06-25T00:31:16.585Z,17.50
2018-06-25T00:33:44.979Z,17.50
2018-06-25T00:36:13.276Z,17.50
2018-06-25T00:38:41.495Z,17.50
2018-06-25T00:41:09.767Z,17.50
2018-06-25T00:43:38.027Z,17.50
2018-06-25T00:46:06.303Z,17.50
2018-06-25T00:48:34.562Z,17.50
2018-06-25T00:51:02.817Z,17.40
2018-06-25T00:53:31.083Z,17.40
2018-06-25T00:55:59.295Z,17.40
2018-06-25T00:58:28.403Z,17.40
2018-06-25T01:00:56.652Z,17.40
2018-06-25T01:03:24.894Z,17.40
2018-06-25T01:05:53.214Z,17.30
2018-06-25T01:08:21.415Z,17.30
2018-06-25T01:10:49.673Z,17.30
2018-06-25T01:13:17.926Z,17.30
2018-06-25T01:18:14.162Z,17.20
2018-06-25T01:20:42.343Z,17.10
2018-06-25T01:23:10.516Z,17.10
2018-06-25T01:25:38.793Z,17.10
2018-06-25T01:28:06.977Z,17.10
2018-06-25T01:30:35.169Z,17.00
2018-06-25T01:33:03.364Z,17.00
2018-06-25T01:37:59.724Z,17.00
2018-06-25T01:40:27.970Z,17.00
2018-06-25T01:42:56.241Z,16.90
2018-06-25T01:45:24.431Z,16.90
2018-06-25T01:47:52.689Z,16.90
2018-06-25T01:50:20.960Z,16.90
2018-06-25T01:52:49.214Z,16.90
2018-06-25T01:55:17.397Z,16.90
2018-06-25T01:57:45.677Z,16.80
2018-06-25T02:00:13.976Z,16.80
2018-06-25T02:02:42.411Z,16.80
2018-06-25T02:05:10.646Z,16.80
2018-06-25T02:07:38.907Z,16.80
2018-06-25T02:10:07.440Z,16.80
2018-06-25T02:12:35.708Z,16.80
2018-06-25T02:15:04.444Z,16.80
2018-06-25T02:17:32.689Z,16.70
2018-06-25T02:20:00.943Z,16.70
2018-06-25T02:22:29.380Z,16.70
2018-06-25T02:27:25.613Z,16.70
2018-06-25T02:29:53.862Z,16.60
2018-06-25T02:32:22.118Z,16.60
2018-06-25T02:34:50.369Z,16.60
2018-06-25T02:39:47.246Z,16.60
2018-06-25T02:42:15.505Z,16.50
2018-06-25T02:44:43.761Z,16.50
2018-06-25T02:47:12.031Z,16.50
2018-06-25T02:49:40.314Z,16.50
2018-06-25T02:52:08.560Z,16.50
2018-06-25T02:54:36.825Z,16.50
2018-06-25T02:57:05.099Z,16.50
2018-06-25T02:59:33.325Z,16.50
2018-06-25T03:02:01.573Z,16.40
2018-06-25T03:04:29.836Z,16.40
2018-06-25T03:06:58.225Z,16.40
2018-06-25T03:09:26.497Z,16.40
2018-06-25T03:11:54.733Z,16.30
2018-06-25T03:14:22.939Z,16.30
2018-06-25T03:16:51.139Z,16.30
2018-06-25T03:21:47.301Z,16.30
2018-06-25T03:26:43.666Z,16.20
2018-06-25T03:29:11.842Z,16.10
2018-06-25T03:31:40.048Z,16.10
2018-06-25T03:34:08.292Z,16.10
2018-06-25T03:36:36.550Z,16.00
2018-06-25T03:39:07.212Z,16.00
2018-06-25T03:41:35.414Z,16.00
2018-06-25T03:44:03.593Z,16.00
2018-06-25T03:46:31.856Z,16.00
2018-06-25T03:49:00.104Z,16.00
2018-06-25T03:51:28.365Z,16.00
2018-06-25T03:53:56.544Z,16.10
2018-06-25T03:56:25.473Z,16.10
2018-06-25T03:58:53.736Z,16.10
2018-06-25T04:01:24.291Z,16.10
2018-06-25T04:03:52.529Z,16.20
2018-06-25T04:06:20.797Z,16.10
2018-06-25T04:08:49.163Z,16.20
2018-06-25T04:11:17.408Z,16.20
2018-06-25T04:13:45.587Z,16.20
2018-06-25T04:16:13.798Z,16.20
2018-06-25T04:18:42.247Z,16.20
2018-06-25T04:21:10.552Z,16.30
2018-06-25T04:23:38.807Z,16.30
2018-06-25T04:26:06.962Z,16.30
2018-06-25T04:28:35.199Z,16.20
2018-06-25T04:31:03.484Z,16.20
2018-06-25T04:33:31.735Z,16.20
2018-06-25T04:35:59.909Z,16.20
2018-06-25T04:40:56.281Z,16.20
2018-06-25T04:43:24.702Z,16.20
2018-06-25T04:45:52.883Z,16.30
2018-06-25T04:48:21.091Z,16.30
2018-06-25T04:50:49.341Z,16.40
2018-06-25T04:53:17.719Z,16.50
2018-06-25T04:55:45.961Z,16.60
2018-06-25T04:58:14.202Z,16.70
2018-06-25T05:00:42.391Z,16.80
2018-06-25T05:03:10.893Z,16.90
2018-06-25T05:05:39.127Z,17.00
2018-06-25T05:08:07.337Z,17.10
2018-06-25T05:10:35.513Z,17.20
2018-06-25T05:15:31.786Z,17.40
2018-06-25T05:17:59.975Z,17.40
2018-06-25T05:20:28.163Z,17.40
2018-06-25T05:22:56.396Z,17.50
2018-06-25T05:25:24.653Z,17.50
2018-06-25T05:27:52.895Z,17.40
2018-06-25T05:30:21.152Z,17.50
2018-06-25T05:32:49.440Z,17.50
2018-06-25T05:35:17.738Z,17.40
2018-06-25T05:37:45.999Z,17.30
2018-06-25T05:40:14.223Z,17.30
2018-06-25T05:42:42.446Z,17.20
2018-06-25T05:45:10.698Z,17.20
2018-06-25T05:47:39.059Z,17.20
2018-06-25T05:50:07.279Z,17.20
2018-06-25T05:52:35.542Z,17.20
2018-06-25T05:55:03.827Z,17.20
2018-06-25T05:57:32.106Z,17.30
2018-06-25T06:00:00.350Z,17.40
2018-06-25T06:02:28.546Z,17.50
2018-06-25T06:04:56.740Z,17.60
2018-06-25T06:07:25.041Z,17.60
2018-06-25T06:09:53.225Z,17.70
2018-06-25T06:12:21.487Z,17.80
2018-06-25T06:14:49.737Z,17.90
2018-06-25T06:17:17.971Z,17.90
2018-06-25T06:19:46.163Z,18.00
2018-06-25T06:22:14.354Z,18.10
2018-06-25T06:24:42.617Z,18.20
2018-06-25T06:29:38.865Z,18.50
2018-06-25T06:32:07.094Z,18.60
2018-06-25T06:34:35.276Z,18.70
2018-06-25T06:37:03.525Z,18.70
2018-06-25T06:39:31.772Z,18.60
2018-06-25T06:41:59.973Z,18.60
2018-06-25T06:44:40.236Z,18.60
2018-06-25T06:47:18.030Z,18.60
2018-06-25T06:49:46.490Z,18.70
2018-06-25T06:52:16.175Z,18.70
2018-06-25T06:54:53.358Z,18.70
2018-06-25T06:57:22.287Z,18.80
2018-06-25T06:59:50.531Z,18.80
2018-06-25T07:02:18.752Z,18.90
2018-06-25T07:04:47.052Z,18.90
2018-06-25T07:07:15.389Z,19.00
2018-06-25T07:09:43.968Z,19.20
2018-06-25T07:12:12.247Z,19.30
2018-06-25T07:14:40.503Z,19.30
2018-06-25T07:17:08.912Z,19.40
2018-06-25T07:19:37.171Z,19.40
2018-06-25T07:22:05.475Z,19.40
2018-06-25T07:24:33.667Z,19.50
2018-06-25T07:27:01.915Z,19.50
2018-06-25T07:29:30.100Z,19.50
2018-06-25T07:31:58.355Z,19.50
2018-06-25T07:34:26.609Z,19.70
2018-06-25T07:36:54.800Z,19.80
2018-06-25T07:39:23.050Z,19.90
2018-06-25T07:41:51.310Z,20.00
2018-06-25T07:44:19.516Z,20.10
2018-06-25T07:46:47.731Z,20.30
2018-06-25T07:49:15.931Z,20.40
2018-06-25T07:51:44.123Z,20.50
2018-06-25T07:54:12.321Z,20.40
2018-06-25T07:56:40.565Z,20.40
2018-06-25T08:01:36.895Z,20.50
2018-06-25T08:04:05.146Z,20.40
2018-06-25T08:06:33.344Z,20.30
2018-06-25T08:11:29.758Z,20.20
2018-06-25T08:13:58.012Z,20.10
2018-06-25T08:16:26.258Z,20.00
2018-06-25T08:18:54.488Z,20.00
2018-06-25T08:21:22.735Z,20.00
2018-06-25T08:23:50.932Z,20.00
2018-06-25T08:26:19.203Z,20.00
2018-06-25T08:28:47.416Z,20.00
2018-06-25T08:31:16.427Z,19.90
2018-06-25T08:33:44.877Z,19.80
2018-06-25T08:36:13.159Z,19.80
2018-06-25T08:38:41.414Z,19.80
2018-06-25T08:41:09.595Z,19.80
2018-06-25T08:46:05.924Z,20.00
2018-06-25T08:48:34.196Z,20.10
2018-06-25T08:51:02.461Z,20.30
2018-06-25T08:53:30.630Z,20.50
2018-06-25T08:55:58.846Z,20.70
2018-06-25T08:58:27.132Z,20.80
2018-06-25T09:00:55.370Z,20.90
2018-06-25T09:03:23.590Z,21.10
2018-06-25T09:05:51.854Z,21.20
2018-06-25T09:08:20.093Z,21.30
2018-06-25T09:10:48.352Z,21.30
2018-06-25T09:13:16.554Z,21.30
2018-06-25T09:15:44.822Z,21.40
2018-06-25T09:18:13.028Z,21.40
2018-06-25T09:20:41.281Z,21.40
2018-06-25T09:23:09.497Z,21.50
2018-06-25T09:25:37.748Z,21.60
2018-06-25T09:28:06.505Z,21.70
2018-06-25T09:30:34.759Z,22.00
2018-06-25T09:33:03.045Z,22.10
2018-06-25T09:35:31.305Z,22.30
2018-06-25T09:37:59.515Z,22.50
2018-06-25T09:40:27.723Z,22.60
2018-06-25T09:42:56.118Z,22.50
2018-06-25T09:45:24.328Z,22.50
2018-06-25T09:47:52.574Z,22.70
2018-06-25T09:50:20.796Z,23.00
2018-06-25T09:52:49.035Z,23.10
2018-06-25T09:55:17.242Z,23.20
2018-06-25T09:57:45.451Z,23.10
2018-06-25T10:00:17.923Z,23.20
2018-06-25T10:02:46.189Z,23.30
2018-06-25T10:05:14.453Z,23.40
2018-06-25T10:07:42.703Z,23.30
2018-06-25T10:10:11.008Z,23.20
2018-06-25T10:12:39.265Z,23.20
2018-06-25T10:15:08.017Z,23.40
2018-06-25T10:17:36.227Z,23.60
2018-06-25T10:20:04.432Z,24.00
2018-06-25T10:22:32.708Z,24.10
2018-06-25T10:25:00.927Z,24.30
2018-06-25T10:27:29.147Z,24.20
2018-06-25T10:29:57.505Z,24.10
2018-06-25T10:32:25.692Z,24.10
2018-06-25T10:34:53.988Z,24.00
2018-06-25T10:37:22.234Z,23.90
2018-06-25T10:39:50.461Z,24.00
2018-06-25T10:44:46.844Z,24.10
2018-06-25T10:47:15.146Z,25.00
2018-06-25T10:49:43.343Z,26.20
2018-06-25T10:52:11.750Z,26.70
2018-06-25T10:54:40.024Z,26.90
2018-06-25T10:57:08.561Z,26.90
2018-06-25T10:59:36.898Z,26.80
2018-06-25T11:02:05.020Z,27.00
2018-06-25T11:04:33.211Z,27.90
2018-06-25T11:07:01.490Z,28.30
2018-06-25T11:09:29.736Z,28.20
2018-06-25T11:11:57.937Z,28.00
2018-06-25T11:14:26.180Z,27.60
2018-06-25T11:16:54.397Z,27.10
2018-06-25T11:19:22.669Z,26.70
2018-06-25T11:21:51.071Z,26.30
2018-06-25T11:24:19.258Z,25.80
2018-06-25T11:26:47.570Z,25.40
2018-06-25T11:29:15.754Z,25.10
2018-06-25T11:31:44.023Z,25.30
2018-06-25T11:34:12.289Z,25.40
2018-06-25T11:36:40.557Z,25.10
2018-06-25T11:39:09.948Z,24.80
2018-06-25T11:41:38.216Z,24.80
2018-06-25T11:44:06.435Z,24.60
2018-06-25T11:46:34.643Z,24.40
2018-06-25T11:49:03.255Z,24.20
2018-06-25T11:51:31.632Z,24.20
2018-06-25T11:53:59.883Z,24.30
2018-06-25T11:59:27.043Z,25.50
2018-06-25T12:01:55.332Z,26.00
2018-06-25T12:04:23.560Z,26.70
2018-06-25T12:06:51.848Z,28.10
2018-06-25T12:09:20.041Z,29.40
2018-06-25T12:11:48.304Z,30.50
2018-06-25T12:14:16.609Z,31.40
2018-06-25T12:16:44.728Z,32.30
2018-06-25T12:19:12.996Z,32.90
2018-06-25T12:21:41.219Z,33.60
2018-06-25T12:24:09.436Z,34.00
2018-06-25T12:26:37.695Z,33.40
2018-06-25T12:29:05.968Z,32.30
2018-06-25T12:31:34.217Z,30.90
2018-06-25T12:34:02.493Z,29.70
2018-06-25T12:36:30.707Z,28.70
2018-06-25T12:38:58.908Z,27.90
2018-06-25T12:41:27.095Z,27.40
2018-06-25T12:43:55.344Z,27.40
2018-06-25T12:46:23.528Z,27.90
2018-06-25T12:48:52.096Z,28.00
2018-06-25T12:51:20.290Z,28.50
2018-06-25T12:53:48.582Z,29.30
2018-06-25T12:56:16.838Z,28.70
2018-06-25T12:58:45.047Z,27.90
2018-06-25T13:01:13.257Z,27.90
2018-06-25T13:03:41.463Z,28.60
2018-06-25T13:11:05.659Z,29.70
2018-06-25T13:13:33.839Z,30.50
2018-06-25T13:16:02.117Z,31.50
2018-06-25T13:18:31.259Z,32.50
2018-06-25T13:23:27.402Z,32.80
2018-06-25T13:28:24.081Z,30.70
2018-06-25T13:30:52.311Z,31.10
2018-06-25T13:33:20.556Z,32.10
2018-06-25T13:35:48.736Z,32.70
2018-06-25T13:38:16.953Z,33.00
2018-06-25T13:40:45.115Z,32.40
2018-06-25T13:43:13.313Z,31.40
2018-06-25T13:45:41.521Z,30.40
2018-06-25T13:48:09.786Z,29.40
2018-06-25T13:50:38.054Z,28.60
2018-06-25T13:53:06.320Z,28.30
2018-06-25T13:55:34.500Z,28.50
2018-06-25T13:58:02.715Z,29.10
2018-06-25T14:00:30.974Z,29.90
2018-06-25T14:02:59.164Z,30.30
2018-06-25T14:05:27.413Z,29.90
2018-06-25T14:07:55.598Z,29.00
2018-06-25T14:10:23.858Z,28.50
2018-06-25T14:12:52.064Z,28.80
2018-06-25T14:15:20.282Z,29.10
2018-06-25T14:17:48.541Z,29.70
2018-06-25T14:20:16.817Z,30.00
2018-06-25T14:22:45.133Z,30.10
2018-06-25T14:25:13.286Z,30.20
2018-06-25T14:27:46.954Z,29.90
2018-06-25T14:30:20.651Z,29.50
2018-06-25T14:32:51.052Z,29.40
2018-06-25T14:37:47.712Z,28.50
2018-06-25T14:40:16.007Z,28.00
2018-06-25T14:45:12.602Z,27.70
2018-06-25T14:47:40.869Z,27.70
2018-06-25T14:50:09.039Z,27.70
2018-06-25T14:52:37.340Z,27.60
2018-06-25T14:57:33.633Z,27.20
2018-06-25T15:00:01.836Z,27.10
2018-06-25T15:02:30.302Z,26.80
2018-06-25T15:04:58.657Z,26.60
2018-06-25T15:07:26.932Z,26.40
2018-06-25T15:09:55.123Z,26.40
2018-06-25T15:12:23.335Z,26.40
2018-06-25T15:14:51.575Z,26.50
2018-06-25T15:17:19.820Z,26.40
2018-06-25T15:19:48.200Z,26.40
2018-06-25T15:22:16.387Z,26.40
2018-06-25T15:24:44.616Z,26.20
2018-06-25T15:27:13.022Z,26.10
2018-06-25T15:29:41.280Z,26.20
2018-06-25T15:32:09.509Z,26.40
2018-06-25T15:34:37.715Z,26.40
2018-06-25T15:37:05.977Z,26.40
2018-06-25T15:39:34.169Z,26.20
2018-06-25T15:42:02.388Z,26.10
2018-06-25T15:44:30.622Z,25.90
2018-06-25T15:46:58.919Z,25.60
2018-06-25T15:49:27.158Z,25.40
2018-06-25T15:51:55.379Z,25.20
2018-06-25T15:54:23.880Z,25.00
2018-06-25T15:56:52.031Z,24.80
2018-06-25T15:59:20.298Z,24.60
2018-06-25T16:01:49.700Z,24.60
2018-06-25T16:04:17.907Z,24.80
2018-06-25T16:06:46.155Z,24.90
2018-06-25T16:11:42.660Z,25.10
2018-06-25T16:14:10.842Z,25.10
2018-06-25T16:16:39.371Z,25.20
2018-06-25T16:19:07.616Z,25.30
2018-06-25T16:21:41.106Z,25.60
2018-06-25T16:24:13.729Z,25.80
2018-06-25T16:26:42.074Z,25.90
2018-06-25T16:29:10.318Z,25.80
2018-06-25T16:31:38.811Z,25.70
2018-06-25T16:34:07.117Z,25.60
2018-06-25T16:36:35.347Z,25.30
2018-06-25T16:39:05.924Z,25.00
2018-06-25T16:41:34.173Z,24.80
2018-06-25T16:44:02.684Z,24.70
2018-06-25T16:46:30.884Z,24.70
2018-06-25T16:49:00.247Z,24.70
2018-06-25T16:51:29.053Z,24.80
2018-06-25T16:53:57.361Z,25.00
2018-06-25T16:56:25.759Z,25.00
2018-06-25T16:58:53.946Z,25.00
2018-06-25T17:01:22.204Z,25.00
2018-06-25T17:03:50.472Z,24.90
2018-06-25T17:06:18.929Z,24.90
2018-06-25T17:08:47.149Z,24.70
2018-06-25T17:11:15.411Z,24.70
2018-06-25T17:13:43.670Z,24.60
2018-06-25T17:16:11.969Z,24.50
2018-06-25T17:18:40.228Z,24.40
2018-06-25T17:21:08.415Z,24.40
2018-06-25T17:23:36.756Z,24.40
2018-06-25T17:26:05.033Z,24.30
2018-06-25T17:28:33.305Z,24.40
2018-06-25T17:33:29.528Z,24.50
2018-06-25T17:35:57.752Z,24.40
2018-06-25T17:38:25.955Z,24.40
2018-06-25T17:40:54.164Z,24.30
2018-06-25T17:43:22.355Z,24.10
2018-06-25T17:45:50.673Z,24.00
2018-06-25T17:50:47.063Z,23.80
2018-06-25T17:53:15.274Z,23.70
2018-06-25T17:55:43.524Z,23.60
2018-06-25T17:58:11.719Z,23.40
2018-06-25T18:00:39.975Z,23.30
2018-06-25T18:03:08.351Z,23.20
2018-06-25T18:05:36.604Z,23.20
2018-06-25T18:08:04.838Z,23.20
2018-06-25T18:10:33.044Z,23.10
2018-06-25T18:13:01.236Z,23.00
2018-06-25T18:15:29.443Z,22.80
2018-06-25T18:17:57.700Z,22.70
2018-06-25T18:20:25.946Z,22.60
2018-06-25T18:22:54.238Z,22.50
2018-06-25T18:25:22.474Z,22.40
2018-06-25T18:27:50.743Z,22.40
2018-06-25T18:30:18.981Z,22.30
2018-06-25T18:32:47.192Z,22.20
2018-06-25T18:37:43.565Z,21.90
2018-06-25T18:40:11.823Z,21.80
2018-06-25T18:42:40.016Z,21.70
2018-06-25T18:45:08.304Z,21.60
2018-06-25T18:47:36.552Z,21.50
2018-06-25T18:50:04.840Z,21.40
2018-06-25T18:52:33.094Z,21.30
2018-06-25T18:55:01.400Z,21.30
2018-06-25T18:59:57.698Z,21.10
2018-06-25T19:02:25.882Z,21.10
2018-06-25T19:04:54.273Z,21.10
2018-06-25T19:07:22.524Z,21.10
2018-06-25T19:09:50.727Z,21.10
2018-06-25T19:12:18.966Z,21.10
2018-06-25T19:14:47.168Z,21.10
2018-06-25T19:17:15.448Z,21.10
2018-06-25T19:19:43.644Z,21.00
2018-06-25T19:22:11.918Z,21.00
2018-06-25T19:24:40.173Z,20.90
2018-06-25T19:27:08.550Z,20.90
2018-06-25T19:32:04.871Z,20.80
2018-06-25T19:34:33.133Z,20.80
2018-06-25T19:37:01.654Z,20.80
2018-06-25T19:39:29.906Z,20.70
2018-06-25T19:41:58.160Z,20.70
2018-06-25T19:44:26.438Z,20.70
2018-06-25T19:46:54.740Z,20.60
2018-06-25T19:49:22.859Z,20.60
2018-06-25T19:51:51.760Z,20.50
2018-06-25T19:56:48.114Z,20.40
2018-06-25T19:59:16.311Z,20.30
2018-06-25T20:01:44.515Z,20.20
2018-06-25T20:04:12.718Z,20.20
2018-06-25T20:06:40.922Z,20.20
2018-06-25T20:09:10.673Z,20.10
2018-06-25T20:11:38.880Z,20.10
2018-06-25T20:14:07.175Z,20.00
2018-06-25T20:16:35.407Z,20.00
2018-06-25T20:21:31.757Z,19.80
2018-06-25T20:23:59.935Z,19.80
2018-06-25T20:26:28.149Z,19.80
2018-06-25T20:28:56.409Z,19.70
2018-06-25T20:31:24.607Z,19.70
2018-06-25T20:33:52.831Z,19.70
2018-06-25T20:36:21.204Z,19.60
2018-06-25T20:38:49.340Z,19.60
2018-06-25T20:41:17.613Z,19.60
2018-06-25T20:43:45.812Z,19.70
2018-06-25T20:46:14.016Z,19.60
2018-06-25T20:48:42.290Z,19.60
2018-06-25T20:51:10.551Z,19.60
2018-06-25T20:53:38.834Z,19.60
2018-06-25T20:56:07.123Z,19.60
2018-06-25T20:58:35.382Z,19.60
2018-06-25T21:01:03.840Z,19.60
2018-06-25T21:03:32.059Z,19.60
2018-06-25T21:06:00.282Z,19.60
2018-06-25T21:10:56.762Z,19.60
2018-06-25T21:13:25.001Z,19.60
2018-06-25T21:15:53.432Z,19.60
2018-06-25T21:18:21.703Z,19.60
2018-06-25T21:20:49.941Z,19.60
2018-06-25T21:23:18.266Z,19.60
2018-06-25T21:25:46.548Z,19.60
2018-06-25T21:28:14.833Z,19.60
2018-06-25T21:30:43.032Z,19.60
2018-06-25T21:33:11.341Z,19.50
2018-06-25T21:35:39.640Z,19.50
2018-06-25T21:38:08.086Z,19.50
2018-06-25T21:40:36.266Z,19.50
2018-06-25T21:43:04.530Z,19.50
2018-06-25T21:45:32.786Z,19.40
2018-06-25T21:48:01.058Z,19.40
2018-06-25T21:50:29.329Z,19.30
2018-06-25T21:52:57.593Z,19.30
2018-06-25T21:55:25.844Z,19.20
2018-06-25T21:57:54.073Z,19.20
2018-06-25T22:00:22.262Z,19.10
2018-06-25T22:02:50.457Z,19.00
2018-06-25T22:05:18.721Z,19.00
2018-06-25T22:07:47.011Z,19.00
2018-06-25T22:10:15.240Z,18.90
2018-06-25T22:12:43.431Z,18.80
2018-06-25T22:15:11.681Z,18.80
2018-06-25T22:17:39.941Z,18.70
2018-06-25T22:20:08.140Z,18.70
2018-06-25T22:22:36.410Z,18.70
2018-06-25T22:25:04.675Z,18.60
2018-06-25T22:27:32.932Z,18.60
2018-06-25T22:30:01.133Z,18.50
2018-06-25T22:32:29.311Z,18.50
2018-06-25T22:34:57.495Z,18.40
2018-06-25T22:37:25.758Z,18.40
2018-06-25T22:39:54.053Z,18.30
2018-06-25T22:42:24.714Z,18.20
2018-06-25T22:44:52.890Z,18.20
2018-06-25T22:47:21.190Z,18.20
2018-06-25T22:49:49.456Z,18.20
2018-06-25T22:52:17.689Z,18.10
2018-06-25T22:54:45.962Z,18.10
2018-06-25T22:57:14.229Z,18.00
2018-06-25T22:59:42.482Z,17.90
2018-06-25T23:02:10.683Z,17.80
2018-06-25T23:04:38.945Z,17.80
2018-06-25T23:07:07.140Z,17.70
2018-06-25T23:09:35.396Z,17.70
2018-06-25T23:12:03.681Z,17.70
2018-06-25T23:14:31.948Z,17.60
2018-06-25T23:17:00.524Z,17.60
2018-06-25T23:19:28.757Z,17.60
2018-06-25T23:21:57.020Z,17.60
2018-06-25T23:24:25.818Z,17.50
2018-06-25T23:26:54.001Z,17.50
2018-06-25T23:29:22.188Z,17.50
2018-06-25T23:31:50.434Z,17.50
2018-06-25T23:34:18.712Z,17.50
2018-06-25T23:36:46.963Z,17.40
2018-06-25T23:39:15.214Z,17.40
2018-06-25T23:41:43.485Z,17.40
2018-06-25T23:44:11.733Z,17.40
2018-06-25T23:46:40.016Z,17.40
2018-06-25T23:49:08.310Z,17.40
2018-06-25T23:51:36.560Z,17.40
2018-06-25T23:54:04.857Z,17.40
2018-06-25T23:56:33.093Z,17.40
2018-06-25T23:59:01.297Z,17.40
